createdAt,value
2023-10-30T00:00:46.127Z,0
2023-10-30T00:01:46.428Z,0
2023-10-30T00:02:46.609Z,0
2023-10-30T00:03:46.907Z,0
2023-10-30T00:04:47.303Z,0
2023-10-30T00:05:47.466Z,0
2023-10-30T00:06:47.684Z,0
2023-10-30T00:07:47.832Z,0
2023-10-30T00:08:47.988Z,0
2023-10-30T00:09:48.327Z,0
2023-10-30T00:10:49.121Z,0
2023-10-30T00:11:49.255Z,0
2023-10-30T00:12:49.405Z,0
2023-10-30T00:13:49.541Z,0
2023-10-30T00:14:49.689Z,0
2023-10-30T00:15:49.828Z,0
2023-10-30T00:16:50.008Z,0
2023-10-30T00:17:50.563Z,0
2023-10-30T00:18:50.844Z,0
2023-10-30T00:19:51.012Z,0
2023-10-30T00:20:51.156Z,0
2023-10-30T00:21:51.289Z,0
2023-10-30T00:22:51.428Z,0
2023-10-30T00:23:51.603Z,0
2023-10-30T00:24:51.727Z,0
2023-10-30T00:25:51.894Z,0
2023-10-30T00:26:52.043Z,0
2023-10-30T00:27:52.298Z,0
2023-10-30T00:28:52.453Z,0
2023-10-30T00:29:52.583Z,0
2023-10-30T00:30:52.747Z,0
2023-10-30T00:31:52.921Z,0
2023-10-30T00:32:53.066Z,0
2023-10-30T00:33:53.283Z,0
2023-10-30T00:34:53.428Z,0
2023-10-30T00:35:53.573Z,0
2023-10-30T00:36:53.721Z,0
2023-10-30T00:37:53.885Z,0
2023-10-30T00:38:54.047Z,0
2023-10-30T00:39:54.183Z,0
2023-10-30T00:40:54.318Z,0
2023-10-30T00:41:54.465Z,0
2023-10-30T00:42:54.622Z,0
2023-10-30T00:43:54.771Z,0
2023-10-30T00:44:54.915Z,0
2023-10-30T00:45:55.080Z,0
2023-10-30T00:46:55.225Z,0
2023-10-30T00:47:55.427Z,0
2023-10-30T00:48:55.721Z,0
2023-10-30T00:49:55.862Z,0
2023-10-30T00:50:56.024Z,0
2023-10-30T00:51:56.188Z,0
2023-10-30T00:52:56.329Z,0
2023-10-30T00:53:56.497Z,0
2023-10-30T00:54:56.650Z,0
2023-10-30T00:55:56.780Z,0
2023-10-30T00:56:56.935Z,0
2023-10-30T00:57:57.093Z,0
2023-10-30T00:58:57.296Z,0
2023-10-30T00:59:57.445Z,0
2023-10-30T01:00:57.637Z,0
2023-10-30T01:01:57.829Z,0
2023-10-30T01:02:58.342Z,0
2023-10-30T01:03:59.336Z,0
2023-10-30T01:05:00.395Z,0
2023-10-30T01:06:01.547Z,0
2023-10-30T01:07:01.675Z,0
2023-10-30T01:08:01.833Z,0
2023-10-30T01:09:01.971Z,0
2023-10-30T01:10:02.140Z,0
2023-10-30T01:11:02.307Z,0
2023-10-30T01:12:02.449Z,0
2023-10-30T01:13:02.591Z,0
2023-10-30T01:14:02.744Z,0
2023-10-30T01:15:02.909Z,0
2023-10-30T01:16:03.085Z,0
2023-10-30T01:17:03.356Z,0
2023-10-30T01:18:03.545Z,0
2023-10-30T01:19:04.480Z,0
2023-10-30T01:20:04.645Z,0
2023-10-30T01:21:04.808Z,0
2023-10-30T01:22:04.991Z,0
2023-10-30T01:23:05.134Z,0
2023-10-30T01:24:05.291Z,0
2023-10-30T01:25:05.507Z,0
2023-10-30T01:26:05.662Z,0
2023-10-30T01:27:05.842Z,0
2023-10-30T01:28:06.047Z,0
2023-10-30T01:29:06.204Z,0
2023-10-30T01:30:06.380Z,0
2023-10-30T01:31:06.635Z,0
2023-10-30T01:32:06.774Z,0
2023-10-30T01:33:07.078Z,0
2023-10-30T01:34:07.704Z,0
2023-10-30T01:35:08.045Z,0
2023-10-30T01:36:08.275Z,0
2023-10-30T01:37:08.464Z,0
2023-10-30T01:38:08.600Z,0
2023-10-30T01:39:08.753Z,0
2023-10-30T01:40:08.960Z,0
2023-10-30T01:41:09.122Z,0
2023-10-30T01:42:09.344Z,0
2023-10-30T01:43:09.548Z,0
2023-10-30T01:44:09.704Z,0
2023-10-30T01:45:09.884Z,0
2023-10-30T01:46:10.191Z,0
2023-10-30T01:47:10.445Z,0
2023-10-30T01:48:10.628Z,0
2023-10-30T01:49:11.050Z,0
2023-10-30T01:50:11.193Z,0
2023-10-30T01:51:11.369Z,0
2023-10-30T01:52:11.564Z,0
2023-10-30T01:53:11.694Z,0
2023-10-30T01:54:11.837Z,0
2023-10-30T01:55:12.090Z,0
2023-10-30T01:56:12.240Z,0
2023-10-30T01:57:12.419Z,0
2023-10-30T01:58:12.689Z,0
2023-10-30T01:59:12.828Z,0
2023-10-30T02:00:13.034Z,0
2023-10-30T02:01:13.513Z,0
2023-10-30T02:02:13.839Z,0
2023-10-30T02:03:14.227Z,0
2023-10-30T02:04:14.992Z,0
2023-10-30T02:05:15.290Z,0
2023-10-30T02:06:15.470Z,0
2023-10-30T02:07:16.954Z,0
2023-10-30T02:08:21.674Z,0
2023-10-30T02:09:21.847Z,0
2023-10-30T02:10:22.163Z,0
2023-10-30T02:11:22.309Z,0
2023-10-30T02:12:22.482Z,0
2023-10-30T02:13:22.710Z,0
2023-10-30T02:14:22.850Z,0
2023-10-30T02:15:23.020Z,0
2023-10-30T02:16:23.300Z,0
2023-10-30T02:17:23.544Z,0
2023-10-30T02:18:23.695Z,0
2023-10-30T02:19:23.989Z,0
2023-10-30T02:20:24.179Z,0
2023-10-30T02:21:24.352Z,0
2023-10-30T02:22:24.619Z,0
2023-10-30T02:23:24.748Z,0
2023-10-30T02:24:24.913Z,0
2023-10-30T02:25:25.147Z,0
2023-10-30T02:26:25.287Z,0
2023-10-30T02:27:25.455Z,0
2023-10-30T02:28:25.747Z,0
2023-10-30T02:29:25.884Z,0
2023-10-30T02:30:26.033Z,0
2023-10-30T02:31:26.249Z,0
2023-10-30T02:32:26.414Z,0
2023-10-30T02:33:26.705Z,0
2023-10-30T02:34:27.186Z,0
2023-10-30T02:35:27.545Z,0
2023-10-30T02:36:27.712Z,0
2023-10-30T02:37:28.008Z,0
2023-10-30T02:38:28.375Z,0
2023-10-30T02:39:28.527Z,0
2023-10-30T02:40:28.772Z,0
2023-10-30T02:41:28.914Z,0
2023-10-30T02:42:29.053Z,0
2023-10-30T02:43:29.371Z,0
2023-10-30T02:44:29.504Z,0
2023-10-30T02:45:29.699Z,0
2023-10-30T02:46:29.985Z,0
2023-10-30T02:47:30.236Z,0
2023-10-30T02:48:30.458Z,0
2023-10-30T02:49:30.715Z,0
2023-10-30T02:50:30.864Z,0
2023-10-30T02:51:31.046Z,0
2023-10-30T02:52:31.347Z,0
2023-10-30T02:53:31.616Z,0
2023-10-30T02:54:31.811Z,0
2023-10-30T02:55:32.032Z,0
2023-10-30T02:56:32.171Z,0
2023-10-30T02:57:32.352Z,0
2023-10-30T02:58:32.698Z,0
2023-10-30T02:59:32.838Z,0
2023-10-30T03:00:33.037Z,0
2023-10-30T03:01:33.411Z,0
2023-10-30T03:02:33.570Z,0
2023-10-30T03:03:34.083Z,0
2023-10-30T03:04:34.929Z,0
2023-10-30T03:05:35.642Z,0
2023-10-30T03:06:35.847Z,0
2023-10-30T03:07:36.130Z,0
2023-10-30T03:08:36.323Z,0
2023-10-30T03:09:36.491Z,0
2023-10-30T03:10:36.690Z,0
2023-10-30T03:11:36.852Z,0
2023-10-30T03:12:37.045Z,0
2023-10-30T03:13:37.336Z,0
2023-10-30T03:14:37.555Z,0
2023-10-30T03:15:38.208Z,0
2023-10-30T03:16:38.601Z,0
2023-10-30T03:17:39.162Z,0
2023-10-30T03:18:39.507Z,0
2023-10-30T03:19:39.763Z,0
2023-10-30T03:20:39.901Z,0
2023-10-30T03:21:40.077Z,0
2023-10-30T03:22:40.417Z,0
2023-10-30T03:23:40.607Z,0
2023-10-30T03:24:40.822Z,0
2023-10-30T03:25:41.136Z,0
2023-10-30T03:26:41.291Z,0
2023-10-30T03:27:41.491Z,0
2023-10-30T03:28:41.979Z,0
2023-10-30T03:29:42.111Z,0
2023-10-30T03:30:42.331Z,0
2023-10-30T03:31:42.603Z,0
2023-10-30T03:32:42.927Z,0
2023-10-30T03:33:43.218Z,0
2023-10-30T03:34:43.637Z,0
2023-10-30T03:35:43.779Z,0
2023-10-30T03:36:43.954Z,0
2023-10-30T03:37:44.232Z,0
2023-10-30T03:38:44.390Z,0
2023-10-30T03:39:44.592Z,0
2023-10-30T03:40:44.968Z,0
2023-10-30T03:41:45.114Z,0
2023-10-30T03:42:45.275Z,0
2023-10-30T03:43:45.560Z,0
2023-10-30T03:44:45.696Z,0
2023-10-30T03:45:45.904Z,0
2023-10-30T03:46:46.296Z,0
2023-10-30T03:47:46.468Z,0
2023-10-30T03:48:46.736Z,0
2023-10-30T03:49:47.042Z,0
2023-10-30T03:50:47.955Z,0
2023-10-30T03:51:48.110Z,0
2023-10-30T03:52:48.404Z,0
2023-10-30T03:53:48.560Z,0
2023-10-30T03:54:48.746Z,0
2023-10-30T03:55:49.099Z,0
2023-10-30T03:56:49.232Z,0
2023-10-30T03:57:49.400Z,0
2023-10-30T03:58:49.671Z,0
2023-10-30T03:59:50.014Z,0
2023-10-30T04:00:50.794Z,0
2023-10-30T04:01:51.149Z,0
2023-10-30T04:02:51.567Z,0
2023-10-30T04:03:51.934Z,0
2023-10-30T04:04:52.784Z,0
2023-10-30T04:05:52.936Z,0
2023-10-30T04:06:53.103Z,0
2023-10-30T04:07:53.300Z,0
2023-10-30T04:08:53.454Z,0
2023-10-30T04:09:53.621Z,0
2023-10-30T04:10:53.911Z,0
2023-10-30T04:11:54.040Z,0
2023-10-30T04:12:54.177Z,0
2023-10-30T04:13:54.309Z,0
2023-10-30T04:14:54.448Z,0
2023-10-30T04:15:54.634Z,0
2023-10-30T04:16:54.895Z,0
2023-10-30T04:17:55.041Z,0
2023-10-30T04:18:55.336Z,0
2023-10-30T04:19:55.498Z,0
2023-10-30T04:20:55.665Z,0
2023-10-30T04:21:55.974Z,0
2023-10-30T04:22:56.198Z,0
2023-10-30T04:23:56.665Z,0
2023-10-30T04:24:56.804Z,0
2023-10-30T04:25:56.948Z,0
2023-10-30T04:26:57.103Z,0
2023-10-30T04:27:57.242Z,0
2023-10-30T04:28:57.425Z,0
2023-10-30T04:29:57.572Z,0
2023-10-30T04:30:57.707Z,0
2023-10-30T04:31:57.868Z,0
2023-10-30T04:32:58.211Z,0
2023-10-30T04:33:58.653Z,0
2023-10-30T04:34:58.790Z,0
2023-10-30T04:35:58.938Z,0
2023-10-30T04:36:59.089Z,0
2023-10-30T04:37:59.261Z,0
2023-10-30T04:38:59.413Z,0
2023-10-30T04:39:59.554Z,0
2023-10-30T04:40:59.730Z,0
2023-10-30T04:41:59.865Z,0
2023-10-30T04:43:00.017Z,0
2023-10-30T04:44:00.165Z,0
2023-10-30T04:45:00.297Z,0
2023-10-30T04:46:00.573Z,0
2023-10-30T04:47:01.037Z,0
2023-10-30T04:48:01.188Z,0
2023-10-30T04:49:01.406Z,0
2023-10-30T04:50:01.575Z,0
2023-10-30T04:51:01.735Z,0
2023-10-30T04:52:01.984Z,0
2023-10-30T04:53:02.155Z,0
2023-10-30T04:54:02.296Z,0
2023-10-30T04:55:02.464Z,0
2023-10-30T04:56:02.594Z,0
2023-10-30T04:57:02.736Z,0
2023-10-30T04:58:02.885Z,0
2023-10-30T04:59:03.026Z,0
2023-10-30T05:00:03.187Z,0
2023-10-30T05:01:03.325Z,0
2023-10-30T05:02:03.475Z,0
2023-10-30T05:03:03.666Z,0
2023-10-30T05:04:04.055Z,0
2023-10-30T05:05:04.447Z,0
2023-10-30T05:06:04.590Z,0
2023-10-30T05:07:04.793Z,0
2023-10-30T05:08:05.192Z,0
2023-10-30T05:09:05.339Z,0
2023-10-30T05:10:05.473Z,0
2023-10-30T05:11:05.635Z,0
2023-10-30T05:12:05.804Z,0
2023-10-30T05:13:05.969Z,0
2023-10-30T05:14:06.113Z,0
2023-10-30T05:15:06.245Z,0
2023-10-30T05:16:06.411Z,0
2023-10-30T05:17:06.645Z,0
2023-10-30T05:18:06.817Z,0
2023-10-30T05:19:07.067Z,0
2023-10-30T05:20:07.246Z,0
2023-10-30T05:21:07.575Z,0
2023-10-30T05:22:07.738Z,0
2023-10-30T05:23:07.873Z,0
2023-10-30T05:24:08.011Z,0
2023-10-30T05:25:08.232Z,0
2023-10-30T05:26:08.365Z,0
2023-10-30T05:27:08.533Z,0
2023-10-30T05:28:08.694Z,0
2023-10-30T05:29:09.251Z,0
2023-10-30T05:30:09.421Z,0
2023-10-30T05:31:09.805Z,0
2023-10-30T05:32:10.319Z,0
2023-10-30T05:33:10.489Z,0
2023-10-30T05:34:10.815Z,0
2023-10-30T05:35:11.001Z,0
2023-10-30T05:36:11.152Z,0
2023-10-30T05:37:11.287Z,0
2023-10-30T05:38:11.424Z,0
2023-10-30T05:39:11.551Z,0
2023-10-30T05:40:12.644Z,0
2023-10-30T05:41:12.937Z,0
2023-10-30T05:42:13.073Z,0
2023-10-30T05:43:13.338Z,0
2023-10-30T05:44:13.488Z,0
2023-10-30T05:45:13.649Z,0
2023-10-30T05:46:13.930Z,1
2023-10-30T05:47:14.183Z,3
2023-10-30T05:48:14.363Z,4
2023-10-30T05:49:14.559Z,6
2023-10-30T05:50:14.729Z,8
2023-10-30T05:51:14.920Z,8
2023-10-30T05:52:15.175Z,11
2023-10-30T05:53:15.306Z,11
2023-10-30T05:54:15.530Z,15
2023-10-30T05:55:15.757Z,20
2023-10-30T05:56:15.916Z,20
2023-10-30T05:57:16.064Z,26
2023-10-30T05:58:16.372Z,26
2023-10-30T05:59:16.538Z,34
2023-10-30T06:00:16.709Z,34
2023-10-30T06:01:16.956Z,45
2023-10-30T06:02:17.197Z,45
2023-10-30T06:03:17.347Z,45
2023-10-30T06:04:17.588Z,59
2023-10-30T06:05:17.908Z,59
2023-10-30T06:06:18.102Z,59
2023-10-30T06:07:18.380Z,77
2023-10-30T06:08:18.514Z,77
2023-10-30T06:09:18.653Z,77
2023-10-30T06:10:18.860Z,77
2023-10-30T06:11:19.014Z,110
2023-10-30T06:12:19.188Z,110
2023-10-30T06:13:19.421Z,110
2023-10-30T06:14:19.588Z,110
2023-10-30T06:15:19.781Z,150
2023-10-30T06:16:20.083Z,150
2023-10-30T06:17:20.340Z,150
2023-10-30T06:18:20.506Z,200
2023-10-30T06:19:20.733Z,200
2023-10-30T06:20:20.863Z,200
2023-10-30T06:21:21.042Z,260
2023-10-30T06:22:21.265Z,260
2023-10-30T06:23:21.395Z,260
2023-10-30T06:24:21.549Z,339.84
2023-10-30T06:25:21.806Z,339.84
2023-10-30T06:26:22.125Z,339.84
2023-10-30T06:27:22.261Z,339.84
2023-10-30T06:28:22.500Z,339.84
2023-10-30T06:29:22.647Z,449.92
2023-10-30T06:30:22.792Z,449.92
2023-10-30T06:31:22.977Z,449.92
2023-10-30T06:32:23.157Z,449.92
2023-10-30T06:33:23.547Z,589.76
2023-10-30T06:34:23.933Z,589.76
2023-10-30T06:35:24.074Z,589.76
2023-10-30T06:36:24.434Z,589.76
2023-10-30T06:37:24.987Z,589.76
2023-10-30T06:38:25.321Z,589.76
2023-10-30T06:39:25.493Z,769.92
2023-10-30T06:40:25.847Z,769.92
2023-10-30T06:41:25.992Z,769.92
2023-10-30T06:42:26.140Z,769.92
2023-10-30T06:43:26.438Z,1019.52
2023-10-30T06:44:26.577Z,1019.52
2023-10-30T06:45:26.743Z,1019.52
2023-10-30T06:46:27.043Z,1019.52
2023-10-30T06:47:27.358Z,1338.88
2023-10-30T06:48:27.583Z,1338.88
2023-10-30T06:49:27.836Z,1338.88
2023-10-30T06:50:27.993Z,1338.88
2023-10-30T06:51:28.209Z,1338.88
2023-10-30T06:52:28.546Z,1338.88
2023-10-30T06:53:28.695Z,1338.88
2023-10-30T06:54:28.833Z,1338.88
2023-10-30T06:55:29.059Z,1338.88
2023-10-30T06:56:29.208Z,1338.88
2023-10-30T06:57:29.360Z,1338.88
2023-10-30T06:58:29.684Z,1338.88
2023-10-30T06:59:29.811Z,1338.88
2023-10-30T07:00:29.976Z,1338.88
2023-10-30T07:01:30.214Z,1338.88
2023-10-30T07:02:30.533Z,1338.88
2023-10-30T07:03:30.900Z,1760
2023-10-30T07:04:31.617Z,1760
2023-10-30T07:05:32.112Z,1760
2023-10-30T07:06:32.288Z,1760
2023-10-30T07:07:32.508Z,1760
2023-10-30T07:08:32.677Z,1760
2023-10-30T07:09:32.859Z,1760
2023-10-30T07:10:33.143Z,1760
2023-10-30T07:11:33.312Z,1760
2023-10-30T07:12:33.457Z,2298.88
2023-10-30T07:13:33.722Z,2298.88
2023-10-30T07:14:33.872Z,2298.88
2023-10-30T07:15:34.039Z,2298.88
2023-10-30T07:16:36.909Z,2298.88
2023-10-30T07:18:00.840Z,2698.24
2023-10-30T07:19:01.061Z,2698.24
2023-10-30T07:20:01.207Z,2698.24
2023-10-30T07:21:01.348Z,2698.24
2023-10-30T07:22:01.522Z,2698.24
2023-10-30T07:23:01.773Z,2997.76
2023-10-30T07:24:01.908Z,2997.76
2023-10-30T07:25:02.058Z,2997.76
2023-10-30T07:26:02.321Z,2997.76
2023-10-30T07:27:02.460Z,2997.76
2023-10-30T07:28:02.602Z,2997.76
2023-10-30T07:29:02.730Z,2997.76
2023-10-30T07:30:02.863Z,3919.36
2023-10-30T07:31:03.070Z,3919.36
2023-10-30T07:32:03.439Z,3919.36
2023-10-30T07:33:04.244Z,3919.36
2023-10-30T07:34:09.541Z,4078.08
2023-10-30T07:35:09.695Z,4078.08
2023-10-30T07:36:09.842Z,4078.08
2023-10-30T07:37:09.974Z,4078.08
2023-10-30T07:38:10.113Z,4078.08
2023-10-30T07:39:11.765Z,4078.08
2023-10-30T07:40:12.422Z,4078.08
2023-10-30T07:41:12.575Z,4078.08
2023-10-30T07:42:12.743Z,4078.08
2023-10-30T07:43:12.894Z,4078.08
2023-10-30T07:44:13.025Z,4078.08
2023-10-30T07:45:13.236Z,4078.08
2023-10-30T07:46:13.541Z,4078.08
2023-10-30T07:47:14.722Z,4078.08
2023-10-30T07:48:15.047Z,4078.08
2023-10-30T07:49:15.294Z,4078.08
2023-10-30T07:50:15.443Z,4078.08
2023-10-30T07:51:15.590Z,4078.08
2023-10-30T07:52:15.729Z,4078.08
2023-10-30T07:53:15.903Z,4078.08
2023-10-30T07:54:16.034Z,4078.08
2023-10-30T07:55:16.228Z,4078.08
2023-10-30T07:56:16.398Z,4078.08
2023-10-30T07:57:16.754Z,4078.08
2023-10-30T07:58:17.168Z,4078.08
2023-10-30T07:59:17.366Z,4078.08
2023-10-30T08:00:17.619Z,4078.08
2023-10-30T08:01:18.009Z,5158.4
2023-10-30T08:02:18.451Z,5158.4
2023-10-30T08:03:18.668Z,5158.4
2023-10-30T08:04:19.330Z,6855.68
2023-10-30T08:05:19.876Z,6855.68
2023-10-30T08:06:20.088Z,6855.68
2023-10-30T08:07:20.389Z,8919.04
2023-10-30T08:08:20.515Z,8919.04
2023-10-30T08:09:20.671Z,8919.04
2023-10-30T08:10:20.909Z,8919.04
2023-10-30T08:11:21.145Z,8919.04
2023-10-30T08:12:21.340Z,8919.04
2023-10-30T08:13:21.716Z,8919.04
2023-10-30T08:14:21.847Z,6195.2
2023-10-30T08:15:22.019Z,6195.2
2023-10-30T08:16:22.234Z,6195.2
2023-10-30T08:17:22.738Z,6195.2
2023-10-30T08:18:22.968Z,6195.2
2023-10-30T08:19:23.194Z,6195.2
2023-10-30T08:20:23.335Z,6195.2
2023-10-30T08:21:23.481Z,6195.2
2023-10-30T08:22:23.750Z,6195.2
2023-10-30T08:23:23.935Z,6195.2
2023-10-30T08:24:24.120Z,6195.2
2023-10-30T08:25:24.378Z,6195.2
2023-10-30T08:26:24.536Z,6195.2
2023-10-30T08:27:24.693Z,6195.2
2023-10-30T08:28:25.082Z,6195.2
2023-10-30T08:29:25.245Z,6195.2
2023-10-30T08:30:25.451Z,6195.2
2023-10-30T08:31:25.795Z,6195.2
2023-10-30T08:32:26.045Z,6195.2
2023-10-30T08:33:26.268Z,6195.2
2023-10-30T08:34:26.639Z,6195.2
2023-10-30T08:35:26.809Z,6195.2
2023-10-30T08:36:27.016Z,6195.2
2023-10-30T08:37:27.405Z,6195.2
2023-10-30T08:38:27.588Z,6195.2
2023-10-30T08:39:27.768Z,6195.2
2023-10-30T08:40:27.966Z,6195.2
2023-10-30T08:41:28.135Z,6195.2
2023-10-30T08:42:28.385Z,6195.2
2023-10-30T08:43:28.616Z,6195.2
2023-10-30T08:44:30.759Z,6195.2
2023-10-30T08:45:31.578Z,6195.2
2023-10-30T08:46:31.849Z,6195.2
2023-10-30T08:47:32.246Z,6195.2
2023-10-30T08:48:32.501Z,6195.2
2023-10-30T08:49:32.917Z,6195.2
2023-10-30T08:50:33.060Z,6195.2
2023-10-30T08:51:33.225Z,6195.2
2023-10-30T08:52:33.498Z,6195.2
2023-10-30T08:53:33.646Z,6195.2
2023-10-30T08:54:33.939Z,6195.2
2023-10-30T08:55:34.166Z,4298.24
2023-10-30T08:56:34.306Z,4298.24
2023-10-30T08:57:34.458Z,4298.24
2023-10-30T08:58:34.668Z,4298.24
2023-10-30T08:59:34.832Z,4298.24
2023-10-30T09:00:35.001Z,4298.24
2023-10-30T09:01:35.269Z,4298.24
2023-10-30T09:02:35.432Z,4298.24
2023-10-30T09:03:35.790Z,4298.24
2023-10-30T09:04:36.675Z,4298.24
2023-10-30T09:05:37.258Z,4298.24
2023-10-30T09:06:38.111Z,4298.24
2023-10-30T09:07:38.405Z,4298.24
2023-10-30T09:08:38.558Z,4298.24
2023-10-30T09:09:38.713Z,4298.24
2023-10-30T09:10:38.953Z,4298.24
2023-10-30T09:11:39.117Z,4298.24
2023-10-30T09:12:39.292Z,4298.24
2023-10-30T09:13:39.600Z,4298.24
2023-10-30T09:14:39.764Z,4298.24
2023-10-30T09:15:39.989Z,4298.24
2023-10-30T09:16:40.462Z,4298.24
2023-10-30T09:17:40.798Z,4298.24
2023-10-30T09:18:41.171Z,4298.24
2023-10-30T09:19:41.448Z,4298.24
2023-10-30T09:20:41.600Z,4298.24
2023-10-30T09:21:41.760Z,4298.24
2023-10-30T09:22:42.061Z,4298.24
2023-10-30T09:23:42.221Z,4298.24
2023-10-30T09:24:42.433Z,4298.24
2023-10-30T09:25:42.736Z,4298.24
2023-10-30T09:26:42.943Z,4298.24
2023-10-30T09:27:43.228Z,4298.24
2023-10-30T09:28:43.675Z,4298.24
2023-10-30T09:29:43.920Z,4298.24
2023-10-30T09:30:44.229Z,4298.24
2023-10-30T09:31:44.537Z,4298.24
2023-10-30T09:32:44.886Z,4298.24
2023-10-30T09:33:45.230Z,4298.24
2023-10-30T09:34:45.476Z,4298.24
2023-10-30T09:35:45.608Z,4298.24
2023-10-30T09:36:45.774Z,4298.24
2023-10-30T09:37:46.127Z,4298.24
2023-10-30T09:38:46.296Z,4298.24
2023-10-30T09:39:46.504Z,4298.24
2023-10-30T09:40:47.162Z,4298.24
2023-10-30T09:41:47.430Z,4298.24
2023-10-30T09:42:47.595Z,4298.24
2023-10-30T09:43:47.928Z,4298.24
2023-10-30T09:44:48.348Z,4298.24
2023-10-30T09:45:49.733Z,4298.24
2023-10-30T09:46:50.147Z,4298.24
2023-10-30T09:47:50.461Z,4298.24
2023-10-30T09:48:50.682Z,4298.24
2023-10-30T09:49:51.062Z,4298.24
2023-10-30T09:50:51.204Z,4298.24
2023-10-30T09:51:51.376Z,4298.24
2023-10-30T09:52:51.672Z,4298.24
2023-10-30T09:53:51.839Z,4298.24
2023-10-30T09:54:52.075Z,4377.6
2023-10-30T09:55:52.801Z,4377.6
2023-10-30T09:56:52.970Z,4377.6
2023-10-30T09:57:53.187Z,4377.6
2023-10-30T09:58:53.450Z,4377.6
2023-10-30T09:59:53.948Z,4377.6
2023-10-30T10:00:54.151Z,4377.6
2023-10-30T10:01:54.749Z,5719.04
2023-10-30T10:02:55.593Z,5719.04
2023-10-30T10:03:56.592Z,5719.04
2023-10-30T10:04:57.185Z,7516.16
2023-10-30T10:05:57.352Z,7516.16
2023-10-30T10:06:57.566Z,7516.16
2023-10-30T10:07:57.838Z,7516.16
2023-10-30T10:08:57.993Z,9876.48
2023-10-30T10:09:58.164Z,9876.48
2023-10-30T10:10:58.452Z,9876.48
2023-10-30T10:11:58.712Z,9876.48
2023-10-30T10:12:58.937Z,9876.48
2023-10-30T10:14:05.061Z,9876.48
2023-10-30T10:15:07.856Z,13393.92
2023-10-30T10:16:08.179Z,13393.92
2023-10-30T10:17:08.639Z,13393.92
2023-10-30T10:18:08.794Z,17592.32
2023-10-30T10:19:09.024Z,17592.32
2023-10-30T10:20:09.242Z,17592.32
2023-10-30T10:21:09.409Z,17592.32
2023-10-30T10:22:09.619Z,17592.32
2023-10-30T10:23:09.824Z,11991.04
2023-10-30T10:24:09.964Z,11991.04
2023-10-30T10:25:10.233Z,8396.8
2023-10-30T10:26:10.388Z,8396.8
2023-10-30T10:27:10.529Z,8396.8
2023-10-30T10:28:12.481Z,8396.8
2023-10-30T10:29:12.861Z,8396.8
2023-10-30T10:30:13.022Z,8396.8
2023-10-30T10:31:13.160Z,8396.8
2023-10-30T10:32:13.324Z,8396.8
2023-10-30T10:33:13.551Z,8396.8
2023-10-30T10:34:14.033Z,8396.8
2023-10-30T10:35:14.417Z,8396.8
2023-10-30T10:36:14.586Z,8396.8
2023-10-30T10:37:14.768Z,8396.8
2023-10-30T10:38:14.912Z,8396.8
2023-10-30T10:39:15.059Z,8396.8
2023-10-30T10:40:15.197Z,8396.8
2023-10-30T10:41:15.340Z,8396.8
2023-10-30T10:42:15.477Z,8396.8
2023-10-30T10:43:15.622Z,8396.8
2023-10-30T10:44:15.762Z,8396.8
2023-10-30T10:45:15.903Z,8396.8
2023-10-30T10:46:16.104Z,8396.8
2023-10-30T10:47:16.471Z,8396.8
2023-10-30T10:48:16.651Z,8396.8
2023-10-30T10:49:16.786Z,8396.8
2023-10-30T10:50:16.917Z,8396.8
2023-10-30T10:51:17.100Z,8396.8
2023-10-30T10:52:17.277Z,8396.8
2023-10-30T10:53:17.413Z,8396.8
2023-10-30T10:54:17.548Z,8396.8
2023-10-30T10:55:17.703Z,8396.8
2023-10-30T10:56:17.852Z,8396.8
2023-10-30T10:57:18.201Z,8396.8
2023-10-30T10:58:18.379Z,8396.8
2023-10-30T10:59:18.540Z,8396.8
2023-10-30T11:00:18.715Z,8396.8
2023-10-30T11:01:19.426Z,8396.8
2023-10-30T11:02:19.761Z,8396.8
2023-10-30T11:03:19.944Z,8396.8
2023-10-30T11:04:20.279Z,8396.8
2023-10-30T11:05:20.716Z,10997.76
2023-10-30T11:06:20.859Z,10997.76
2023-10-30T11:07:20.995Z,10997.76
2023-10-30T11:08:21.138Z,10997.76
2023-10-30T11:09:21.296Z,10997.76
2023-10-30T11:10:21.608Z,10997.76
2023-10-30T11:11:22.045Z,10997.76
2023-10-30T11:12:22.330Z,10997.76
2023-10-30T11:13:22.594Z,10997.76
2023-10-30T11:14:22.745Z,10997.76
2023-10-30T11:15:23.022Z,7659.52
2023-10-30T11:16:23.317Z,7659.52
2023-10-30T11:17:23.771Z,7659.52
2023-10-30T11:18:23.985Z,7659.52
2023-10-30T11:19:24.190Z,7659.52
2023-10-30T11:20:24.389Z,7659.52
2023-10-30T11:21:24.558Z,7659.52
2023-10-30T11:22:24.758Z,7659.52
2023-10-30T11:23:24.901Z,7659.52
2023-10-30T11:24:25.074Z,7659.52
2023-10-30T11:25:25.316Z,7659.52
2023-10-30T11:26:25.512Z,7659.52
2023-10-30T11:27:25.717Z,7659.52
2023-10-30T11:28:25.982Z,7659.52
2023-10-30T11:29:26.117Z,7659.52
2023-10-30T11:30:26.307Z,7659.52
2023-10-30T11:31:26.586Z,7659.52
2023-10-30T11:32:26.829Z,7659.52
2023-10-30T11:33:26.983Z,7659.52
2023-10-30T11:34:27.165Z,7659.52
2023-10-30T11:35:27.356Z,7659.52
2023-10-30T11:36:27.549Z,7659.52
2023-10-30T11:37:27.805Z,7659.52
2023-10-30T11:38:27.955Z,7659.52
2023-10-30T11:39:28.113Z,7659.52
2023-10-30T11:40:28.340Z,5335.04
2023-10-30T11:41:28.494Z,5335.04
2023-10-30T11:42:28.664Z,5335.04
2023-10-30T11:43:28.976Z,5335.04
2023-10-30T11:44:29.115Z,5335.04
2023-10-30T11:45:29.270Z,5335.04
2023-10-30T11:46:29.595Z,5335.04
2023-10-30T11:47:30.123Z,5335.04
2023-10-30T11:48:30.387Z,5335.04
2023-10-30T11:49:30.617Z,5335.04
2023-10-30T11:50:30.764Z,3699.2
2023-10-30T11:51:30.968Z,3699.2
2023-10-30T11:52:31.186Z,3699.2
2023-10-30T11:53:31.334Z,3699.2
2023-10-30T11:54:31.483Z,3699.2
2023-10-30T11:55:31.701Z,3699.2
2023-10-30T11:56:31.937Z,3699.2
2023-10-30T11:57:32.123Z,3699.2
2023-10-30T11:58:32.397Z,3699.2
2023-10-30T11:59:32.522Z,3699.2
2023-10-30T12:00:32.702Z,3699.2
2023-10-30T12:01:32.974Z,3699.2
2023-10-30T12:02:33.318Z,3699.2
2023-10-30T12:03:33.578Z,3699.2
2023-10-30T12:04:34.186Z,3699.2
2023-10-30T12:05:34.671Z,3699.2
2023-10-30T12:06:34.837Z,3699.2
2023-10-30T12:07:35.116Z,3699.2
2023-10-30T12:08:35.258Z,3699.2
2023-10-30T12:09:35.412Z,3699.2
2023-10-30T12:10:36.836Z,3699.2
2023-10-30T12:11:37.226Z,3699.2
2023-10-30T12:12:37.441Z,3699.2
2023-10-30T12:13:37.700Z,3699.2
2023-10-30T12:14:37.861Z,3699.2
2023-10-30T12:15:38.016Z,3699.2
2023-10-30T12:16:38.385Z,2579.2
2023-10-30T12:17:38.758Z,2579.2
2023-10-30T12:18:39.095Z,2579.2
2023-10-30T12:19:39.442Z,2579.2
2023-10-30T12:20:39.606Z,2579.2
2023-10-30T12:21:39.775Z,2579.2
2023-10-30T12:22:40.005Z,2579.2
2023-10-30T12:23:40.145Z,2579.2
2023-10-30T12:24:40.322Z,2579.2
2023-10-30T12:25:40.639Z,2579.2
2023-10-30T12:26:40.837Z,2579.2
2023-10-30T12:27:40.980Z,2579.2
2023-10-30T12:28:41.279Z,2579.2
2023-10-30T12:29:41.417Z,2579.2
2023-10-30T12:30:41.607Z,2579.2
2023-10-30T12:31:41.941Z,2579.2
2023-10-30T12:32:42.208Z,2579.2
2023-10-30T12:33:42.491Z,2579.2
2023-10-30T12:34:42.745Z,2579.2
2023-10-30T12:35:42.951Z,2579.2
2023-10-30T12:36:43.185Z,2579.2
2023-10-30T12:37:43.540Z,3358.72
2023-10-30T12:38:43.754Z,3358.72
2023-10-30T12:39:43.955Z,3358.72
2023-10-30T12:40:44.294Z,3358.72
2023-10-30T12:41:44.628Z,3358.72
2023-10-30T12:42:44.931Z,4377.6
2023-10-30T12:43:45.235Z,4377.6
2023-10-30T12:44:45.372Z,4377.6
2023-10-30T12:45:45.517Z,4377.6
2023-10-30T12:46:45.824Z,4377.6
2023-10-30T12:47:46.275Z,4377.6
2023-10-30T12:48:46.719Z,4377.6
2023-10-30T12:49:47.071Z,4377.6
2023-10-30T12:50:47.262Z,4377.6
2023-10-30T12:51:47.490Z,4377.6
2023-10-30T12:52:47.782Z,4377.6
2023-10-30T12:53:47.966Z,4377.6
2023-10-30T12:54:48.321Z,4377.6
2023-10-30T12:55:49.205Z,4377.6
2023-10-30T12:56:49.368Z,4377.6
2023-10-30T12:57:49.614Z,4377.6
2023-10-30T12:58:50.044Z,5698.56
2023-10-30T12:59:50.176Z,5698.56
2023-10-30T13:02:08.480Z,5939.2
2023-10-30T13:03:08.996Z,5939.2
2023-10-30T13:04:09.509Z,5939.2
2023-10-30T13:05:10.140Z,5939.2
2023-10-30T13:06:10.539Z,5939.2
2023-10-30T13:07:10.671Z,5939.2
2023-10-30T13:08:10.815Z,5939.2
2023-10-30T13:09:10.953Z,5939.2
2023-10-30T13:10:11.087Z,5939.2
2023-10-30T13:11:11.288Z,5939.2
2023-10-30T13:12:11.475Z,5939.2
2023-10-30T13:13:11.631Z,5939.2
2023-10-30T13:14:11.802Z,5939.2
2023-10-30T13:15:11.966Z,3957.76
2023-10-30T13:16:12.152Z,3957.76
2023-10-30T13:17:12.302Z,3957.76
2023-10-30T13:18:12.470Z,3957.76
2023-10-30T13:19:12.639Z,3957.76
2023-10-30T13:20:12.913Z,3957.76
2023-10-30T13:21:13.044Z,3957.76
2023-10-30T13:22:13.210Z,3957.76
2023-10-30T13:23:13.360Z,3957.76
2023-10-30T13:24:13.521Z,3957.76
2023-10-30T13:25:13.794Z,3957.76